sensor_id;sensor_type;location;lat;lon;timestamp;P1;durP1;ratioP1;P2;durP2;ratioP2
74108;SDS011;62466;47.566;7.786;2023-02-13T00:00:27;20.15;;;12.23;;
74108;SDS011;62466;47.566;7.786;2023-02-13T00:02:52;19.60;;;12.40;;
74108;SDS011;62466;47.566;7.786;2023-02-13T00:05:18;22.13;;;12.05;;
74108;SDS011;62466;47.566;7.786;2023-02-13T00:07:43;19.33;;;11.70;;
74108;SDS011;62466;47.566;7.786;2023-02-13T00:10:09;21.15;;;12.25;;
74108;SDS011;62466;47.566;7.786;2023-02-13T00:12:34;22.63;;;11.43;;
74108;SDS011;62466;47.566;7.786;2023-02-13T00:15:00;17.45;;;11.35;;
74108;SDS011;62466;47.566;7.786;2023-02-13T00:17:26;17.77;;;11.55;;
74108;SDS011;62466;47.566;7.786;2023-02-13T00:19:51;15.88;;;10.68;;
74108;SDS011;62466;47.566;7.786;2023-02-13T00:22:17;15.02;;;11.05;;
74108;SDS011;62466;47.566;7.786;2023-02-13T00:24:42;18.00;;;10.85;;
74108;SDS011;62466;47.566;7.786;2023-02-13T00:27:10;19.35;;;11.20;;
74108;SDS011;62466;47.566;7.786;2023-02-13T00:29:36;16.58;;;10.65;;
74108;SDS011;62466;47.566;7.786;2023-02-13T00:32:01;17.63;;;11.10;;
74108;SDS011;62466;47.566;7.786;2023-02-13T00:34:27;15.57;;;10.02;;
74108;SDS011;62466;47.566;7.786;2023-02-13T00:36:53;16.30;;;10.98;;
74108;SDS011;62466;47.566;7.786;2023-02-13T00:39:19;14.35;;;9.30;;
74108;SDS011;62466;47.566;7.786;2023-02-13T00:41:46;11.45;;;9.07;;
74108;SDS011;62466;47.566;7.786;2023-02-13T00:44:12;15.30;;;9.57;;
74108;SDS011;62466;47.566;7.786;2023-02-13T00:46:37;16.23;;;10.13;;
74108;SDS011;62466;47.566;7.786;2023-02-13T00:49:03;12.73;;;9.35;;
74108;SDS011;62466;47.566;7.786;2023-02-13T00:51:32;17.20;;;10.48;;
74108;SDS011;62466;47.566;7.786;2023-02-13T00:53:58;15.57;;;10.45;;
74108;SDS011;62466;47.566;7.786;2023-02-13T00:56:23;14.20;;;9.90;;
74108;SDS011;62466;47.566;7.786;2023-02-13T00:58:49;16.92;;;10.23;;
74108;SDS011;62466;47.566;7.786;2023-02-13T01:01:14;14.52;;;10.13;;
74108;SDS011;62466;47.566;7.786;2023-02-13T01:03:40;14.80;;;8.90;;
74108;SDS011;62466;47.566;7.786;2023-02-13T01:06:06;13.98;;;9.57;;
74108;SDS011;62466;47.566;7.786;2023-02-13T01:08:32;17.50;;;10.60;;
74108;SDS011;62466;47.566;7.786;2023-02-13T01:10:57;19.17;;;10.70;;
74108;SDS011;62466;47.566;7.786;2023-02-13T01:13:23;19.90;;;10.35;;
74108;SDS011;62466;47.566;7.786;2023-02-13T01:15:49;18.65;;;11.48;;
74108;SDS011;62466;47.566;7.786;2023-02-13T01:18:15;22.67;;;10.68;;
74108;SDS011;62466;47.566;7.786;2023-02-13T01:20:42;15.70;;;10.45;;
74108;SDS011;62466;47.566;7.786;2023-02-13T01:23:08;17.10;;;10.38;;
74108;SDS011;62466;47.566;7.786;2023-02-13T01:25:34;15.85;;;10.15;;
74108;SDS011;62466;47.566;7.786;2023-02-13T01:27:59;17.00;;;10.10;;
74108;SDS011;62466;47.566;7.786;2023-02-13T01:30:25;15.95;;;10.68;;
74108;SDS011;62466;47.566;7.786;2023-02-13T01:32:50;18.02;;;10.75;;
74108;SDS011;62466;47.566;7.786;2023-02-13T01:35:16;20.27;;;11.30;;
74108;SDS011;62466;47.566;7.786;2023-02-13T01:37:41;20.05;;;10.60;;
74108;SDS011;62466;47.566;7.786;2023-02-13T01:40:09;16.55;;;10.75;;
74108;SDS011;62466;47.566;7.786;2023-02-13T01:42:36;19.45;;;10.77;;
74108;SDS011;62466;47.566;7.786;2023-02-13T01:45:12;15.23;;;10.30;;
74108;SDS011;62466;47.566;7.786;2023-02-13T01:47:45;17.10;;;11.23;;
74108;SDS011;62466;47.566;7.786;2023-02-13T01:50:57;17.08;;;10.02;;
74108;SDS011;62466;47.566;7.786;2023-02-13T01:53:09;18.60;;;10.75;;
74108;SDS011;62466;47.566;7.786;2023-02-13T01:55:38;17.35;;;11.15;;
74108;SDS011;62466;47.566;7.786;2023-02-13T01:58:12;16.15;;;10.98;;
74108;SDS011;62466;47.566;7.786;2023-02-13T02:00:40;18.00;;;11.60;;
74108;SDS011;62466;47.566;7.786;2023-02-13T02:03:15;17.23;;;11.55;;
74108;SDS011;62466;47.566;7.786;2023-02-13T02:05:43;17.48;;;11.77;;
74108;SDS011;62466;47.566;7.786;2023-02-13T02:08:09;21.55;;;11.95;;
74108;SDS011;62466;47.566;7.786;2023-02-13T02:10:37;20.13;;;12.35;;
74108;SDS011;62466;47.566;7.786;2023-02-13T02:13:05;16.45;;;10.23;;
74108;SDS011;62466;47.566;7.786;2023-02-13T02:15:33;16.15;;;10.35;;
74108;SDS011;62466;47.566;7.786;2023-02-13T02:17:59;21.00;;;10.98;;
74108;SDS011;62466;47.566;7.786;2023-02-13T02:23:48;19.52;;;11.90;;
74108;SDS011;62466;47.566;7.786;2023-02-13T02:32:02;21.50;;;12.10;;
74108;SDS011;62466;47.566;7.786;2023-02-13T02:34:36;19.30;;;11.18;;
74108;SDS011;62466;47.566;7.786;2023-02-13T02:37:25;19.30;;;11.88;;
74108;SDS011;62466;47.566;7.786;2023-02-13T02:40:24;19.63;;;11.85;;
74108;SDS011;62466;47.566;7.786;2023-02-13T02:43:12;15.15;;;10.82;;
74108;SDS011;62466;47.566;7.786;2023-02-13T02:48:28;19.40;;;11.02;;
74108;SDS011;62466;47.566;7.786;2023-02-13T02:54:05;17.98;;;10.65;;
74108;SDS011;62466;47.566;7.786;2023-02-13T02:59:24;22.63;;;11.73;;
74108;SDS011;62466;47.566;7.786;2023-02-13T03:02:08;22.60;;;12.90;;
74108;SDS011;62466;47.566;7.786;2023-02-13T03:04:54;22.67;;;12.40;;
74108;SDS011;62466;47.566;7.786;2023-02-13T03:07:39;25.08;;;13.10;;
74108;SDS011;62466;47.566;7.786;2023-02-13T03:10:05;21.85;;;12.88;;
74108;SDS011;62466;47.566;7.786;2023-02-13T03:13:12;22.33;;;12.07;;
74108;SDS011;62466;47.566;7.786;2023-02-13T03:15:47;24.38;;;13.02;;
74108;SDS011;62466;47.566;7.786;2023-02-13T03:18:34;25.90;;;13.60;;
74108;SDS011;62466;47.566;7.786;2023-02-13T03:27:12;33.40;;;15.38;;
74108;SDS011;62466;47.566;7.786;2023-02-13T03:30:06;29.83;;;13.70;;
74108;SDS011;62466;47.566;7.786;2023-02-13T03:35:40;29.27;;;14.25;;
74108;SDS011;62466;47.566;7.786;2023-02-13T03:41:28;28.00;;;14.68;;
74108;SDS011;62466;47.566;7.786;2023-02-13T03:46:44;28.25;;;14.13;;
74108;SDS011;62466;47.566;7.786;2023-02-13T03:52:31;28.77;;;14.32;;
74108;SDS011;62466;47.566;7.786;2023-02-13T03:55:02;30.65;;;14.20;;
74108;SDS011;62466;47.566;7.786;2023-02-13T03:57:49;34.53;;;16.50;;
74108;SDS011;62466;47.566;7.786;2023-02-13T04:00:38;33.35;;;16.75;;
74108;SDS011;62466;47.566;7.786;2023-02-13T04:05:40;33.70;;;16.33;;
74108;SDS011;62466;47.566;7.786;2023-02-13T04:08:07;35.97;;;16.73;;
74108;SDS011;62466;47.566;7.786;2023-02-13T04:10:33;27.20;;;14.98;;
74108;SDS011;62466;47.566;7.786;2023-02-13T04:15:40;34.30;;;14.85;;
74108;SDS011;62466;47.566;7.786;2023-02-13T04:18:16;34.65;;;15.20;;
74108;SDS011;62466;47.566;7.786;2023-02-13T04:20:45;32.38;;;16.40;;
74108;SDS011;62466;47.566;7.786;2023-02-13T04:23:11;28.92;;;14.80;;
74108;SDS011;62466;47.566;7.786;2023-02-13T04:25:37;33.55;;;15.20;;
74108;SDS011;62466;47.566;7.786;2023-02-13T04:28:03;27.13;;;14.48;;
74108;SDS011;62466;47.566;7.786;2023-02-13T04:30:29;29.30;;;15.27;;
74108;SDS011;62466;47.566;7.786;2023-02-13T04:32:54;29.05;;;14.93;;
74108;SDS011;62466;47.566;7.786;2023-02-13T04:35:20;31.77;;;15.68;;
74108;SDS011;62466;47.566;7.786;2023-02-13T04:37:45;29.83;;;14.45;;
74108;SDS011;62466;47.566;7.786;2023-02-13T04:40:11;30.67;;;15.27;;
74108;SDS011;62466;47.566;7.786;2023-02-13T04:42:36;31.98;;;15.20;;
74108;SDS011;62466;47.566;7.786;2023-02-13T04:45:02;27.30;;;14.50;;
74108;SDS011;62466;47.566;7.786;2023-02-13T04:47:28;28.63;;;14.60;;
74108;SDS011;62466;47.566;7.786;2023-02-13T04:49:53;29.85;;;15.73;;
74108;SDS011;62466;47.566;7.786;2023-02-13T04:52:19;29.08;;;14.95;;
74108;SDS011;62466;47.566;7.786;2023-02-13T04:54:44;31.67;;;15.77;;
74108;SDS011;62466;47.566;7.786;2023-02-13T04:57:09;31.50;;;15.38;;
74108;SDS011;62466;47.566;7.786;2023-02-13T04:59:35;30.23;;;15.32;;
74108;SDS011;62466;47.566;7.786;2023-02-13T05:02:00;33.65;;;16.13;;
74108;SDS011;62466;47.566;7.786;2023-02-13T05:04:26;27.30;;;15.68;;
74108;SDS011;62466;47.566;7.786;2023-02-13T05:06:53;32.45;;;15.57;;
74108;SDS011;62466;47.566;7.786;2023-02-13T05:09:18;33.30;;;17.73;;
74108;SDS011;62466;47.566;7.786;2023-02-13T05:11:44;29.00;;;15.23;;
74108;SDS011;62466;47.566;7.786;2023-02-13T05:14:09;32.85;;;15.00;;
74108;SDS011;62466;47.566;7.786;2023-02-13T05:16:35;32.70;;;13.80;;
74108;SDS011;62466;47.566;7.786;2023-02-13T05:19:01;34.90;;;16.27;;
74108;SDS011;62466;47.566;7.786;2023-02-13T05:21:26;30.38;;;14.52;;
74108;SDS011;62466;47.566;7.786;2023-02-13T05:24:10;32.58;;;14.68;;
74108;SDS011;62466;47.566;7.786;2023-02-13T05:26:39;29.15;;;15.82;;
74108;SDS011;62466;47.566;7.786;2023-02-13T05:29:04;27.30;;;14.60;;
74108;SDS011;62466;47.566;7.786;2023-02-13T05:34:17;34.10;;;14.25;;
74108;SDS011;62466;47.566;7.786;2023-02-13T05:36:43;28.30;;;14.15;;
74108;SDS011;62466;47.566;7.786;2023-02-13T05:39:09;34.80;;;16.27;;
74108;SDS011;62466;47.566;7.786;2023-02-13T05:41:34;33.63;;;15.82;;
74108;SDS011;62466;47.566;7.786;2023-02-13T05:44:00;30.65;;;15.23;;
74108;SDS011;62466;47.566;7.786;2023-02-13T05:46:25;32.45;;;15.70;;
74108;SDS011;62466;47.566;7.786;2023-02-13T05:48:51;36.10;;;17.10;;
74108;SDS011;62466;47.566;7.786;2023-02-13T05:51:17;35.92;;;16.55;;
74108;SDS011;62466;47.566;7.786;2023-02-13T05:53:43;35.00;;;16.08;;
74108;SDS011;62466;47.566;7.786;2023-02-13T05:56:09;40.22;;;16.73;;
74108;SDS011;62466;47.566;7.786;2023-02-13T05:58:34;35.20;;;17.70;;
74108;SDS011;62466;47.566;7.786;2023-02-13T06:01:00;32.35;;;16.55;;
74108;SDS011;62466;47.566;7.786;2023-02-13T06:03:26;35.45;;;15.98;;
74108;SDS011;62466;47.566;7.786;2023-02-13T06:05:53;37.13;;;16.35;;
74108;SDS011;62466;47.566;7.786;2023-02-13T06:08:19;32.50;;;15.00;;
74108;SDS011;62466;47.566;7.786;2023-02-13T06:10:46;35.47;;;16.38;;
74108;SDS011;62466;47.566;7.786;2023-02-13T06:13:11;34.58;;;17.30;;
74108;SDS011;62466;47.566;7.786;2023-02-13T06:15:37;38.88;;;17.25;;
74108;SDS011;62466;47.566;7.786;2023-02-13T06:18:03;34.25;;;17.08;;
74108;SDS011;62466;47.566;7.786;2023-02-13T06:20:29;37.10;;;18.30;;
74108;SDS011;62466;47.566;7.786;2023-02-13T06:22:54;38.17;;;18.85;;
74108;SDS011;62466;47.566;7.786;2023-02-13T06:25:20;35.03;;;18.08;;
74108;SDS011;62466;47.566;7.786;2023-02-13T06:27:46;35.80;;;19.23;;
74108;SDS011;62466;47.566;7.786;2023-02-13T06:30:12;38.72;;;18.38;;
74108;SDS011;62466;47.566;7.786;2023-02-13T06:32:38;39.63;;;17.45;;
74108;SDS011;62466;47.566;7.786;2023-02-13T06:35:03;36.55;;;18.35;;
74108;SDS011;62466;47.566;7.786;2023-02-13T06:37:29;36.90;;;17.73;;
74108;SDS011;62466;47.566;7.786;2023-02-13T06:39:55;37.17;;;17.30;;
74108;SDS011;62466;47.566;7.786;2023-02-13T06:42:20;38.25;;;17.60;;
74108;SDS011;62466;47.566;7.786;2023-02-13T06:44:46;36.88;;;18.48;;
74108;SDS011;62466;47.566;7.786;2023-02-13T06:47:11;34.38;;;17.55;;
74108;SDS011;62466;47.566;7.786;2023-02-13T06:49:37;35.42;;;17.13;;
74108;SDS011;62466;47.566;7.786;2023-02-13T06:52:02;32.13;;;17.27;;
74108;SDS011;62466;47.566;7.786;2023-02-13T06:54:28;41.10;;;19.08;;
74108;SDS011;62466;47.566;7.786;2023-02-13T06:56:53;35.50;;;16.00;;
74108;SDS011;62466;47.566;7.786;2023-02-13T06:59:19;34.72;;;17.60;;
74108;SDS011;62466;47.566;7.786;2023-02-13T07:01:44;37.53;;;17.25;;
74108;SDS011;62466;47.566;7.786;2023-02-13T07:04:10;40.08;;;17.60;;
74108;SDS011;62466;47.566;7.786;2023-02-13T07:06:35;35.88;;;17.02;;
74108;SDS011;62466;47.566;7.786;2023-02-13T07:09:02;34.17;;;15.85;;
74108;SDS011;62466;47.566;7.786;2023-02-13T07:11:28;37.78;;;17.42;;
74108;SDS011;62466;47.566;7.786;2023-02-13T07:13:53;36.00;;;16.85;;
74108;SDS011;62466;47.566;7.786;2023-02-13T07:16:18;35.92;;;18.17;;
74108;SDS011;62466;47.566;7.786;2023-02-13T07:18:44;37.38;;;16.60;;
74108;SDS011;62466;47.566;7.786;2023-02-13T07:21:09;40.72;;;17.58;;
74108;SDS011;62466;47.566;7.786;2023-02-13T07:23:35;36.33;;;17.38;;
74108;SDS011;62466;47.566;7.786;2023-02-13T07:26:00;36.10;;;17.58;;
74108;SDS011;62466;47.566;7.786;2023-02-13T07:28:26;34.70;;;17.60;;
74108;SDS011;62466;47.566;7.786;2023-02-13T07:30:53;37.78;;;17.85;;
74108;SDS011;62466;47.566;7.786;2023-02-13T07:33:18;41.35;;;17.55;;
74108;SDS011;62466;47.566;7.786;2023-02-13T07:35:47;38.53;;;18.15;;
74108;SDS011;62466;47.566;7.786;2023-02-13T07:38:13;37.45;;;17.40;;
74108;SDS011;62466;47.566;7.786;2023-02-13T07:40:39;35.63;;;17.77;;
74108;SDS011;62466;47.566;7.786;2023-02-13T07:43:05;38.10;;;18.08;;
74108;SDS011;62466;47.566;7.786;2023-02-13T07:45:30;37.88;;;16.88;;
74108;SDS011;62466;47.566;7.786;2023-02-13T07:47:56;40.55;;;18.23;;
74108;SDS011;62466;47.566;7.786;2023-02-13T07:50:22;36.92;;;17.55;;
74108;SDS011;62466;47.566;7.786;2023-02-13T07:53:00;37.20;;;16.55;;
74108;SDS011;62466;47.566;7.786;2023-02-13T07:55:26;41.05;;;17.77;;
74108;SDS011;62466;47.566;7.786;2023-02-13T07:57:53;38.92;;;17.65;;
74108;SDS011;62466;47.566;7.786;2023-02-13T08:00:19;34.72;;;16.33;;
74108;SDS011;62466;47.566;7.786;2023-02-13T08:02:45;38.60;;;17.33;;
74108;SDS011;62466;47.566;7.786;2023-02-13T08:05:10;37.35;;;17.83;;
74108;SDS011;62466;47.566;7.786;2023-02-13T08:07:36;38.90;;;17.85;;
74108;SDS011;62466;47.566;7.786;2023-02-13T08:10:02;35.05;;;17.25;;
74108;SDS011;62466;47.566;7.786;2023-02-13T08:12:46;37.67;;;16.83;;
74108;SDS011;62466;47.566;7.786;2023-02-13T08:15:12;41.55;;;17.85;;
74108;SDS011;62466;47.566;7.786;2023-02-13T08:17:39;36.00;;;17.13;;
74108;SDS011;62466;47.566;7.786;2023-02-13T08:20:05;41.17;;;18.30;;
74108;SDS011;62466;47.566;7.786;2023-02-13T08:22:32;44.55;;;20.25;;
74108;SDS011;62466;47.566;7.786;2023-02-13T08:24:58;40.92;;;18.02;;
74108;SDS011;62466;47.566;7.786;2023-02-13T08:27:23;46.20;;;20.80;;
74108;SDS011;62466;47.566;7.786;2023-02-13T08:29:49;44.90;;;18.20;;
74108;SDS011;62466;47.566;7.786;2023-02-13T08:32:15;40.08;;;19.85;;
74108;SDS011;62466;47.566;7.786;2023-02-13T08:34:41;43.92;;;20.77;;
74108;SDS011;62466;47.566;7.786;2023-02-13T08:37:06;40.72;;;18.85;;
74108;SDS011;62466;47.566;7.786;2023-02-13T08:39:32;42.65;;;19.30;;
74108;SDS011;62466;47.566;7.786;2023-02-13T08:41:57;37.28;;;18.63;;
74108;SDS011;62466;47.566;7.786;2023-02-13T08:44:23;35.88;;;18.05;;
74108;SDS011;62466;47.566;7.786;2023-02-13T08:46:48;36.53;;;17.58;;
74108;SDS011;62466;47.566;7.786;2023-02-13T08:49:13;39.33;;;17.80;;
74108;SDS011;62466;47.566;7.786;2023-02-13T08:51:39;40.65;;;19.13;;
74108;SDS011;62466;47.566;7.786;2023-02-13T08:54:04;38.20;;;16.75;;
74108;SDS011;62466;47.566;7.786;2023-02-13T08:56:30;40.33;;;19.10;;
74108;SDS011;62466;47.566;7.786;2023-02-13T08:58:55;33.67;;;17.23;;
74108;SDS011;62466;47.566;7.786;2023-02-13T09:01:21;36.08;;;17.77;;
74108;SDS011;62466;47.566;7.786;2023-02-13T09:03:48;32.90;;;17.63;;
74108;SDS011;62466;47.566;7.786;2023-02-13T09:06:13;35.00;;;16.98;;
74108;SDS011;62466;47.566;7.786;2023-02-13T09:08:39;36.97;;;17.48;;
74108;SDS011;62466;47.566;7.786;2023-02-13T09:11:04;36.05;;;17.58;;
74108;SDS011;62466;47.566;7.786;2023-02-13T09:13:31;38.42;;;18.13;;
74108;SDS011;62466;47.566;7.786;2023-02-13T09:16:07;36.67;;;17.27;;
74108;SDS011;62466;47.566;7.786;2023-02-13T09:18:33;34.85;;;17.20;;
74108;SDS011;62466;47.566;7.786;2023-02-13T09:20:59;40.25;;;17.95;;
74108;SDS011;62466;47.566;7.786;2023-02-13T09:23:29;33.72;;;15.82;;
74108;SDS011;62466;47.566;7.786;2023-02-13T09:25:57;35.58;;;18.10;;
74108;SDS011;62466;47.566;7.786;2023-02-13T09:28:24;34.63;;;18.55;;
74108;SDS011;62466;47.566;7.786;2023-02-13T09:30:49;33.42;;;16.52;;
74108;SDS011;62466;47.566;7.786;2023-02-13T09:33:15;34.50;;;17.48;;
74108;SDS011;62466;47.566;7.786;2023-02-13T09:35:40;35.35;;;17.02;;
74108;SDS011;62466;47.566;7.786;2023-02-13T09:38:07;32.75;;;18.17;;
74108;SDS011;62466;47.566;7.786;2023-02-13T09:40:38;34.03;;;17.27;;
74108;SDS011;62466;47.566;7.786;2023-02-13T09:43:16;36.25;;;17.35;;
74108;SDS011;62466;47.566;7.786;2023-02-13T09:45:51;32.53;;;17.48;;
74108;SDS011;62466;47.566;7.786;2023-02-13T09:48:27;32.53;;;16.33;;
74108;SDS011;62466;47.566;7.786;2023-02-13T09:50:54;31.13;;;16.98;;
74108;SDS011;62466;47.566;7.786;2023-02-13T09:53:20;33.92;;;17.30;;
74108;SDS011;62466;47.566;7.786;2023-02-13T09:55:56;36.42;;;17.90;;
74108;SDS011;62466;47.566;7.786;2023-02-13T09:58:46;36.80;;;17.40;;
74108;SDS011;62466;47.566;7.786;2023-02-13T10:06:57;36.92;;;17.92;;
74108;SDS011;62466;47.566;7.786;2023-02-13T10:09:32;32.92;;;18.10;;
74108;SDS011;62466;47.566;7.786;2023-02-13T10:12:54;33.97;;;17.00;;
74108;SDS011;62466;47.566;7.786;2023-02-13T10:17:35;36.35;;;17.05;;
74108;SDS011;62466;47.566;7.786;2023-02-13T10:22:53;33.47;;;16.52;;
74108;SDS011;62466;47.566;7.786;2023-02-13T10:25:25;31.55;;;17.10;;
74108;SDS011;62466;47.566;7.786;2023-02-13T10:27:54;33.50;;;18.48;;
74108;SDS011;62466;47.566;7.786;2023-02-13T10:30:23;30.10;;;16.15;;
74108;SDS011;62466;47.566;7.786;2023-02-13T10:33:14;30.55;;;16.70;;
74108;SDS011;62466;47.566;7.786;2023-02-13T10:36:08;33.55;;;18.15;;
74108;SDS011;62466;47.566;7.786;2023-02-13T10:38:33;33.38;;;18.42;;
74108;SDS011;62466;47.566;7.786;2023-02-13T10:44:02;34.90;;;19.25;;
74108;SDS011;62466;47.566;7.786;2023-02-13T10:52:22;35.65;;;19.27;;
74108;SDS011;62466;47.566;7.786;2023-02-13T11:03:31;31.40;;;19.20;;
74108;SDS011;62466;47.566;7.786;2023-02-13T11:05:57;26.65;;;17.58;;
74108;SDS011;62466;47.566;7.786;2023-02-13T11:10:48;31.45;;;19.48;;
74108;SDS011;62466;47.566;7.786;2023-02-13T11:13:24;30.48;;;18.63;;
74108;SDS011;62466;47.566;7.786;2023-02-13T11:16:09;30.85;;;19.00;;
74108;SDS011;62466;47.566;7.786;2023-02-13T11:18:42;31.60;;;19.77;;
74108;SDS011;62466;47.566;7.786;2023-02-13T11:21:15;30.77;;;18.33;;
74108;SDS011;62466;47.566;7.786;2023-02-13T11:23:48;30.88;;;19.55;;
74108;SDS011;62466;47.566;7.786;2023-02-13T11:26:36;33.08;;;19.98;;
74108;SDS011;62466;47.566;7.786;2023-02-13T11:29:05;28.73;;;19.63;;
74108;SDS011;62466;47.566;7.786;2023-02-13T11:31:41;28.88;;;19.40;;
74108;SDS011;62466;47.566;7.786;2023-02-13T11:36:53;31.48;;;19.73;;
74108;SDS011;62466;47.566;7.786;2023-02-13T11:39:31;30.35;;;19.17;;
74108;SDS011;62466;47.566;7.786;2023-02-13T11:41:57;30.17;;;19.73;;
74108;SDS011;62466;47.566;7.786;2023-02-13T11:44:24;33.22;;;20.13;;
74108;SDS011;62466;47.566;7.786;2023-02-13T11:46:51;35.47;;;21.80;;
74108;SDS011;62466;47.566;7.786;2023-02-13T11:51:51;29.98;;;19.45;;
74108;SDS011;62466;47.566;7.786;2023-02-13T12:04:46;31.50;;;19.98;;
74108;SDS011;62466;47.566;7.786;2023-02-13T12:09:39;34.83;;;21.30;;
74108;SDS011;62466;47.566;7.786;2023-02-13T12:12:05;30.25;;;20.92;;
74108;SDS011;62466;47.566;7.786;2023-02-13T12:14:32;31.13;;;20.30;;
74108;SDS011;62466;47.566;7.786;2023-02-13T12:17:06;33.17;;;20.70;;
74108;SDS011;62466;47.566;7.786;2023-02-13T12:19:38;34.00;;;21.13;;
74108;SDS011;62466;47.566;7.786;2023-02-13T12:37:54;32.90;;;21.00;;
74108;SDS011;62466;47.566;7.786;2023-02-13T12:57:07;32.13;;;20.05;;
74108;SDS011;62466;47.566;7.786;2023-02-13T12:59:43;30.10;;;20.65;;
74108;SDS011;62466;47.566;7.786;2023-02-13T13:08:15;32.08;;;20.85;;
74108;SDS011;62466;47.566;7.786;2023-02-13T13:13:31;36.25;;;23.23;;
74108;SDS011;62466;47.566;7.786;2023-02-13T13:16:18;36.55;;;23.70;;
74108;SDS011;62466;47.566;7.786;2023-02-13T13:19:23;36.13;;;23.17;;
74108;SDS011;62466;47.566;7.786;2023-02-13T13:21:58;34.10;;;21.10;;
74108;SDS011;62466;47.566;7.786;2023-02-13T13:24:37;32.80;;;21.23;;
74108;SDS011;62466;47.566;7.786;2023-02-13T13:27:10;31.52;;;20.50;;
74108;SDS011;62466;47.566;7.786;2023-02-13T13:30:25;32.30;;;20.77;;
74108;SDS011;62466;47.566;7.786;2023-02-13T13:32:41;32.00;;;20.90;;
74108;SDS011;62466;47.566;7.786;2023-02-13T13:35:12;31.58;;;20.20;;
74108;SDS011;62466;47.566;7.786;2023-02-13T13:37:41;32.78;;;22.48;;
74108;SDS011;62466;47.566;7.786;2023-02-13T13:40:29;30.17;;;19.23;;
74108;SDS011;62466;47.566;7.786;2023-02-13T13:45:44;31.23;;;20.15;;
74108;SDS011;62466;47.566;7.786;2023-02-13T13:51:11;29.15;;;19.75;;
74108;SDS011;62466;47.566;7.786;2023-02-13T13:54:16;32.35;;;21.42;;
74108;SDS011;62466;47.566;7.786;2023-02-13T13:56:24;30.13;;;21.02;;
74108;SDS011;62466;47.566;7.786;2023-02-13T13:58:50;30.63;;;21.38;;
74108;SDS011;62466;47.566;7.786;2023-02-13T14:03:42;33.65;;;21.20;;
74108;SDS011;62466;47.566;7.786;2023-02-13T14:06:16;28.70;;;19.52;;
74108;SDS011;62466;47.566;7.786;2023-02-13T14:14:46;27.08;;;18.35;;
74108;SDS011;62466;47.566;7.786;2023-02-13T14:17:08;29.58;;;20.88;;
74108;SDS011;62466;47.566;7.786;2023-02-13T14:19:38;28.98;;;20.38;;
74108;SDS011;62466;47.566;7.786;2023-02-13T14:24:55;29.00;;;19.88;;
74108;SDS011;62466;47.566;7.786;2023-02-13T14:27:40;30.58;;;20.88;;
74108;SDS011;62466;47.566;7.786;2023-02-13T14:30:06;29.05;;;19.73;;
74108;SDS011;62466;47.566;7.786;2023-02-13T14:32:50;31.80;;;20.17;;
74108;SDS011;62466;47.566;7.786;2023-02-13T14:35:17;29.10;;;19.75;;
74108;SDS011;62466;47.566;7.786;2023-02-13T14:37:48;31.73;;;20.30;;
74108;SDS011;62466;47.566;7.786;2023-02-13T14:45:55;29.50;;;20.08;;
74108;SDS011;62466;47.566;7.786;2023-02-13T14:48:34;28.40;;;19.65;;
74108;SDS011;62466;47.566;7.786;2023-02-13T14:51:02;28.05;;;19.88;;
74108;SDS011;62466;47.566;7.786;2023-02-13T14:53:29;29.45;;;19.67;;
74108;SDS011;62466;47.566;7.786;2023-02-13T14:56:04;29.13;;;20.70;;
74108;SDS011;62466;47.566;7.786;2023-02-13T14:58:32;28.88;;;19.77;;
74108;SDS011;62466;47.566;7.786;2023-02-13T15:04:36;33.58;;;20.80;;
74108;SDS011;62466;47.566;7.786;2023-02-13T15:07:17;32.38;;;19.90;;
74108;SDS011;62466;47.566;7.786;2023-02-13T15:10:01;29.58;;;20.13;;
74108;SDS011;62466;47.566;7.786;2023-02-13T15:12:35;30.33;;;19.42;;
74108;SDS011;62466;47.566;7.786;2023-02-13T15:15:02;34.55;;;21.08;;
74108;SDS011;62466;47.566;7.786;2023-02-13T15:17:42;29.60;;;19.90;;
74108;SDS011;62466;47.566;7.786;2023-02-13T15:20:22;32.70;;;20.75;;
74108;SDS011;62466;47.566;7.786;2023-02-13T15:22:49;30.00;;;19.05;;
74108;SDS011;62466;47.566;7.786;2023-02-13T15:25:21;29.67;;;18.58;;
74108;SDS011;62466;47.566;7.786;2023-02-13T15:27:50;33.65;;;19.10;;
74108;SDS011;62466;47.566;7.786;2023-02-13T15:30:21;31.63;;;20.23;;
74108;SDS011;62466;47.566;7.786;2023-02-13T15:32:55;31.90;;;20.30;;
74108;SDS011;62466;47.566;7.786;2023-02-13T15:35:25;28.88;;;18.23;;
74108;SDS011;62466;47.566;7.786;2023-02-13T15:37:53;36.20;;;20.17;;
74108;SDS011;62466;47.566;7.786;2023-02-13T15:40:26;31.55;;;19.92;;
74108;SDS011;62466;47.566;7.786;2023-02-13T15:42:53;33.05;;;20.70;;
74108;SDS011;62466;47.566;7.786;2023-02-13T15:45:20;32.72;;;19.42;;
74108;SDS011;62466;47.566;7.786;2023-02-13T15:47:47;34.05;;;19.90;;
74108;SDS011;62466;47.566;7.786;2023-02-13T15:50:15;32.28;;;20.48;;
74108;SDS011;62466;47.566;7.786;2023-02-13T15:52:44;32.22;;;18.77;;
74108;SDS011;62466;47.566;7.786;2023-02-13T15:55:53;34.00;;;19.38;;
74108;SDS011;62466;47.566;7.786;2023-02-13T16:00:29;35.35;;;19.55;;
74108;SDS011;62466;47.566;7.786;2023-02-13T16:02:57;34.33;;;20.17;;
74108;SDS011;62466;47.566;7.786;2023-02-13T16:05:23;35.30;;;21.20;;
74108;SDS011;62466;47.566;7.786;2023-02-13T16:07:54;37.22;;;21.38;;
74108;SDS011;62466;47.566;7.786;2023-02-13T16:10:31;33.20;;;19.13;;
74108;SDS011;62466;47.566;7.786;2023-02-13T16:12:59;33.95;;;19.55;;
74108;SDS011;62466;47.566;7.786;2023-02-13T16:15:29;38.33;;;21.13;;
74108;SDS011;62466;47.566;7.786;2023-02-13T16:17:55;36.95;;;20.75;;
74108;SDS011;62466;47.566;7.786;2023-02-13T16:20:21;37.53;;;19.98;;
74108;SDS011;62466;47.566;7.786;2023-02-13T16:22:50;39.28;;;20.60;;
74108;SDS011;62466;47.566;7.786;2023-02-13T16:27:56;41.65;;;22.42;;
74108;SDS011;62466;47.566;7.786;2023-02-13T16:30:42;38.70;;;19.88;;
74108;SDS011;62466;47.566;7.786;2023-02-13T16:35:41;41.13;;;21.05;;
74108;SDS011;62466;47.566;7.786;2023-02-13T16:38:25;45.10;;;22.83;;
74108;SDS011;62466;47.566;7.786;2023-02-13T16:43:42;42.33;;;20.40;;
74108;SDS011;62466;47.566;7.786;2023-02-13T16:48:44;45.33;;;23.13;;
74108;SDS011;62466;47.566;7.786;2023-02-13T16:51:12;48.03;;;24.13;;
74108;SDS011;62466;47.566;7.786;2023-02-13T16:53:37;49.20;;;25.08;;
74108;SDS011;62466;47.566;7.786;2023-02-13T16:56:05;51.10;;;25.77;;
74108;SDS011;62466;47.566;7.786;2023-02-13T16:58:32;58.17;;;25.77;;
74108;SDS011;62466;47.566;7.786;2023-02-13T17:00:57;53.10;;;27.67;;
74108;SDS011;62466;47.566;7.786;2023-02-13T17:03:30;48.22;;;25.35;;
74108;SDS011;62466;47.566;7.786;2023-02-13T17:05:59;54.55;;;28.75;;
74108;SDS011;62466;47.566;7.786;2023-02-13T17:08:26;48.13;;;25.73;;
74108;SDS011;62466;47.566;7.786;2023-02-13T17:11:02;54.55;;;26.92;;
74108;SDS011;62466;47.566;7.786;2023-02-13T17:13:29;51.75;;;27.83;;
74108;SDS011;62466;47.566;7.786;2023-02-13T17:15:56;53.50;;;23.52;;
74108;SDS011;62466;47.566;7.786;2023-02-13T17:18:22;52.47;;;25.77;;
74108;SDS011;62466;47.566;7.786;2023-02-13T17:20:47;46.25;;;22.77;;
74108;SDS011;62466;47.566;7.786;2023-02-13T17:23:17;49.15;;;24.17;;
74108;SDS011;62466;47.566;7.786;2023-02-13T17:25:45;45.03;;;23.50;;
74108;SDS011;62466;47.566;7.786;2023-02-13T17:28:13;38.67;;;21.02;;